Time,TemperatureF,DewpointF,PressureIn,WindDirection,WindDirectionDegrees,WindSpeedMPH,WindSpeedGustMPH,Humidity,HourlyPrecipIn,Conditions,Clouds,dailyrainin,SoftwareType,DateUTC
2013-08-11 00:03:00,64.1,64.1,26.92,South,180,0.0,2.0,100,0.00,,,-99.99,VWS V12.07,2013-08-11 04:03:00,
2013-08-11 00:32:00,64.3,64.3,26.92,South,180,0.0,1.0,100,0.00,,,-99.99,VWS V12.07,2013-08-11 04:32:00,
2013-08-11 01:02:00,64.4,64.4,26.91,South,180,0.0,2.0,100,0.00,,,-99.99,VWS V12.07,2013-08-11 05:02:00,
2013-08-11 01:33:00,64.0,64.0,26.90,South,180,3.0,3.0,100,0.00,,,-99.99,VWS V12.07,2013-08-11 05:33:00,
2013-08-11 02:31:00,63.1,63.1,26.90,South,177,0.0,1.0,100,0.00,,,-99.99,VWS V12.07,2013-08-11 06:31:00,
2013-08-11 03:02:00,63.0,63.0,26.91,South,177,0.0,1.0,100,0.00,,,-99.99,VWS V12.07,2013-08-11 07:02:00,
2013-08-11 04:02:00,64.0,64.0,26.91,South,177,0.0,2.0,100,0.00,,,-99.99,VWS V12.07,2013-08-11 08:02:00,
2013-08-11 04:32:00,64.1,64.1,26.91,South,177,0.0,1.0,100,0.00,,,-99.99,VWS V12.07,2013-08-11 08:32:00,
2013-08-11 05:02:00,64.4,64.4,26.92,South,177,0.0,3.0,100,0.00,,,-99.99,VWS V12.07,2013-08-11 09:02:00,
2013-08-11 05:32:00,63.9,63.9,26.93,South,178,0.0,5.0,100,0.00,,,-99.99,VWS V12.07,2013-08-11 09:32:00,
2013-08-11 06:02:00,64.0,64.0,26.93,South,177,0.0,3.0,100,0.00,,,-99.99,VWS V12.07,2013-08-11 10:02:00,
2013-08-11 07:02:00,65.2,65.2,26.93,South,178,2.0,5.0,100,0.00,,,-99.99,VWS V12.07,2013-08-11 11:02:00,
2013-08-11 07:31:00,67.5,67.5,26.94,South,178,3.0,5.0,100,0.00,,,-99.99,VWS V12.07,2013-08-11 11:31:00,
2013-08-11 08:01:00,67.8,67.8,26.94,SSE,159,0.0,1.0,100,0.00,,,-99.99,VWS V12.07,2013-08-11 12:01:00,
2013-08-11 08:31:00,68.8,68.8,26.94,South,175,2.0,3.0,100,0.00,,,-99.99,VWS V12.07,2013-08-11 12:31:00,
2013-08-11 09:01:00,70.8,70.8,26.94,South,178,0.0,5.0,100,0.00,,,-99.99,VWS V12.07,2013-08-11 13:01:00,
2013-08-11 09:31:00,71.3,71.3,26.94,SSW,205,3.0,9.0,100,0.00,,,-99.99,VWS V12.07,2013-08-11 13:31:00,
2013-08-11 10:01:00,71.4,71.4,26.94,SSW,195,3.0,7.0,100,0.00,,,-99.99,VWS V12.07,2013-08-11 14:01:00,
2013-08-11 10:31:00,73.8,72.9,26.94,South,177,5.0,7.0,97,0.00,,,-99.99,VWS V12.07,2013-08-11 14:31:00,
2013-08-11 11:31:00,75.4,72.9,26.94,SSW,198,2.0,8.0,92,0.00,,,-99.99,VWS V12.07,2013-08-11 15:31:00,
2013-08-11 12:02:00,76.1,73.3,26.93,WNW,282,6.0,11.0,91,0.00,,,-99.99,VWS V12.07,2013-08-11 16:02:00,
2013-08-11 12:31:00,77.0,73.5,26.93,South,181,3.0,7.0,89,0.00,,,-99.99,VWS V12.07,2013-08-11 16:31:00,
2013-08-11 13:01:00,77.4,73.2,26.92,SSW,204,3.0,7.0,87,0.00,,,-99.99,VWS V12.07,2013-08-11 17:01:00,
2013-08-11 13:31:00,78.0,74.5,26.91,NNW,335,2.0,5.0,89,0.00,,,-99.99,VWS V12.07,2013-08-11 17:31:00,
2013-08-11 14:01:00,77.5,73.0,26.90,SW,218,4.0,6.0,86,0.00,,,-99.99,VWS V12.07,2013-08-11 18:01:00,
2013-08-11 14:31:00,79.2,73.2,26.90,SSW,212,2.0,10.0,82,0.00,,,-99.99,VWS V12.07,2013-08-11 18:31:00,
2013-08-11 15:01:00,77.7,73.5,26.90,SSW,193,3.0,8.0,87,0.00,,,-99.99,VWS V12.07,2013-08-11 19:01:00,
2013-08-11 15:31:00,78.8,73.6,26.89,South,186,5.0,6.0,84,0.00,,,-99.99,VWS V12.07,2013-08-11 19:31:00,
2013-08-11 16:01:00,77.7,72.5,26.89,SSW,203,0.0,0.0,84,0.00,,,-99.99,VWS V12.07,2013-08-11 20:01:00,
2013-08-11 16:31:00,78.5,72.9,26.88,SSW,200,4.0,4.0,83,0.00,,,-99.99,VWS V12.07,2013-08-11 20:31:00,
2013-08-11 17:01:00,77.6,72.4,26.89,South,181,3.0,5.0,84,0.00,,,-99.99,VWS V12.07,2013-08-11 21:01:00,
2013-08-11 17:31:00,76.9,72.4,26.89,South,178,1.0,4.0,86,0.00,,,-99.99,VWS V12.07,2013-08-11 21:31:00,
2013-08-11 18:01:00,74.9,71.4,26.89,NW,307,5.0,8.0,89,0.00,,,-99.99,VWS V12.07,2013-08-11 22:01:00,
2013-08-11 18:31:00,71.8,70.9,26.90,SSW,206,3.0,4.0,97,0.00,,,-99.99,VWS V12.07,2013-08-11 22:31:00,
2013-08-11 19:01:00,69.1,69.1,26.89,South,185,0.0,1.0,100,0.00,,,-99.99,VWS V12.07,2013-08-11 23:01:00,
2013-08-11 19:31:00,67.8,67.8,26.90,South,185,0.0,2.0,100,0.00,,,-99.99,VWS V12.07,2013-08-11 23:31:00,
2013-08-11 20:01:00,67.5,67.5,26.90,South,185,1.0,3.0,100,0.00,,,-99.99,VWS V12.07,2013-08-12 00:01:00,
2013-08-11 21:01:00,66.7,66.7,26.90,South,185,0.0,0.0,100,0.00,,,-99.99,VWS V12.07,2013-08-12 01:01:00,
2013-08-11 21:31:00,66.8,66.8,26.91,South,185,0.0,2.0,100,0.00,,,-99.99,VWS V12.07,2013-08-12 01:31:00,
2013-08-11 22:31:00,67.0,67.0,26.91,South,183,0.0,3.0,100,0.00,,,-99.99,VWS V12.07,2013-08-12 02:31:00,
2013-08-11 23:01:00,66.6,66.6,26.91,South,183,0.0,2.0,100,0.00,,,-99.99,VWS V12.07,2013-08-12 03:01:00,
2013-08-11 23:31:00,66.3,66.3,26.91,South,183,0.0,3.0,100,0.00,,,-99.99,VWS V12.07,2013-08-12 03:31:00,